createdAt,value
2023-01-23T00:01:13.273Z,101302.56
2023-01-23T00:03:40.092Z,101290.13
2023-01-23T00:06:15.045Z,101300.56
2023-01-23T00:08:43.240Z,101290.03
2023-01-23T00:11:14.501Z,101283.91
2023-01-23T00:13:41.242Z,101280.50
2023-01-23T00:16:10.682Z,101276.06
2023-01-23T00:18:37.397Z,101274.22
2023-01-23T00:21:08.916Z,101279.56
2023-01-23T00:23:36.499Z,101277.97
2023-01-23T00:26:04.233Z,101288.66
2023-01-23T00:28:30.811Z,101281.66
2023-01-23T00:31:04.892Z,101282.59
2023-01-23T00:33:31.902Z,101284.28
2023-01-23T00:35:59.895Z,101279.81
2023-01-23T00:38:26.722Z,101280.69
2023-01-23T00:40:54.607Z,101282.63
2023-01-23T00:43:22.294Z,101274.63
2023-01-23T00:45:48.844Z,101273.66
2023-01-23T00:48:15.614Z,101281.38
2023-01-23T00:50:42.216Z,101280.94
2023-01-23T00:53:10.467Z,101293.75
2023-01-23T00:55:37.064Z,101289.81
2023-01-23T00:58:03.665Z,101294.50
2023-01-23T01:00:30.332Z,101296.56
2023-01-23T01:02:56.977Z,101291.69
2023-01-23T01:05:23.571Z,101284.16
2023-01-23T01:07:50.120Z,101288.16
2023-01-23T01:10:16.997Z,101281.75
2023-01-23T01:12:43.763Z,101281.38
2023-01-23T01:15:11.075Z,101279.25
2023-01-23T01:17:37.632Z,101265.59
2023-01-23T01:20:05.782Z,101257.38
2023-01-23T01:22:32.728Z,101255.16
2023-01-23T01:24:59.362Z,101259.97
2023-01-23T01:27:25.956Z,101260.53
2023-01-23T01:29:52.748Z,101252.25
2023-01-23T01:32:19.495Z,101257.22
2023-01-23T01:34:46.071Z,101252.56
2023-01-23T01:37:12.687Z,101261.28
2023-01-23T01:39:39.279Z,101259.44
2023-01-23T01:42:05.912Z,101257.50
2023-01-23T01:44:53.934Z,101268.81
2023-01-23T01:47:20.496Z,101262.63
2023-01-23T01:49:47.843Z,101266.88
2023-01-23T01:52:15.794Z,101264.94
2023-01-23T01:54:48.360Z,101266.63
2023-01-23T01:57:14.863Z,101264.78
2023-01-23T01:59:54.411Z,101269.13
2023-01-23T02:02:31.638Z,101263.75
2023-01-23T02:05:03.609Z,101257.44
2023-01-23T02:07:57.274Z,101258.31
2023-01-23T02:10:24.340Z,101252.97
2023-01-23T02:12:52.573Z,101255.69
2023-01-23T02:15:21.697Z,101252.16
2023-01-23T02:17:51.621Z,101253.75
2023-01-23T02:20:24.931Z,101245.84
2023-01-23T02:23:02.174Z,101253.56
2023-01-23T02:25:34.857Z,101254.28
2023-01-23T02:28:02.367Z,101250.63
2023-01-23T02:30:29.049Z,101250.34
2023-01-23T02:32:55.632Z,101247.56
2023-01-23T02:35:28.077Z,101251.81
2023-01-23T02:37:59.964Z,101242.75
2023-01-23T02:40:36.672Z,101237.28
2023-01-23T02:43:05.876Z,101251.38
2023-01-23T02:45:33.459Z,101247.78
2023-01-23T02:48:01.874Z,101240.63
2023-01-23T02:50:29.205Z,101229.03
2023-01-23T02:52:58.146Z,101228.16
2023-01-23T02:55:33.086Z,101223.69
2023-01-23T02:58:19.743Z,101219.16
2023-01-23T03:00:47.231Z,101221.03
2023-01-23T03:03:16.000Z,101217.44
2023-01-23T03:05:42.719Z,101218.31
2023-01-23T03:08:09.460Z,101209.38
2023-01-23T03:10:36.186Z,101205.84
2023-01-23T03:13:04.646Z,101203.06
2023-01-23T03:15:33.355Z,101199.28
2023-01-23T03:18:00.438Z,101208.09
2023-01-23T03:20:28.304Z,101202.75
2023-01-23T03:22:55.064Z,101207.28
2023-01-23T03:25:22.051Z,101205.50
2023-01-23T03:27:48.918Z,101203.59
2023-01-23T03:30:17.881Z,101199.88
2023-01-23T03:32:46.102Z,101195.28
2023-01-23T03:35:16.791Z,101198.81
2023-01-23T03:37:44.327Z,101195.97
2023-01-23T03:40:41.275Z,101190.53
2023-01-23T03:43:08.268Z,101191.38
2023-01-23T03:45:35.079Z,101182.38
2023-01-23T03:48:01.734Z,101179.56
2023-01-23T03:50:28.329Z,101178.41
2023-01-23T03:52:54.981Z,101178.41
2023-01-23T03:55:21.630Z,101174.88
2023-01-23T03:57:48.414Z,101187.34
2023-01-23T04:00:16.912Z,101190.00
2023-01-23T04:02:43.639Z,101180.88
2023-01-23T04:05:10.554Z,101200.34
2023-01-23T04:07:37.099Z,101197.78
2023-01-23T04:10:03.813Z,101191.59
2023-01-23T04:12:30.411Z,101186.38
2023-01-23T04:14:57.158Z,101206.03
2023-01-23T04:17:23.728Z,101202.53
2023-01-23T04:19:50.258Z,101192.81
2023-01-23T04:22:16.818Z,101199.94
2023-01-23T04:24:43.343Z,101202.59
2023-01-23T04:27:10.115Z,101198.28
2023-01-23T04:29:36.696Z,101203.47
2023-01-23T04:32:04.750Z,101197.03
2023-01-23T04:34:31.474Z,101198.81
2023-01-23T04:36:58.070Z,101186.38
2023-01-23T04:39:24.691Z,101190.88
2023-01-23T04:41:51.268Z,101200.53
2023-01-23T04:44:20.713Z,101197.78
2023-01-23T04:46:50.048Z,101195.91
2023-01-23T04:49:18.744Z,101204.59
2023-01-23T04:51:48.069Z,101194.09
2023-01-23T04:54:15.621Z,101197.63
2023-01-23T04:56:43.208Z,101198.56
2023-01-23T04:59:09.966Z,101207.41
2023-01-23T05:01:37.161Z,101219.88
2023-01-23T05:04:04.521Z,101227.00
2023-01-23T05:06:31.226Z,101222.53
2023-01-23T05:08:58.166Z,101226.94
2023-01-23T05:11:24.848Z,101227.09
2023-01-23T05:13:51.463Z,101222.59
2023-01-23T05:16:18.127Z,101225.34
2023-01-23T05:18:44.717Z,101221.03
2023-01-23T05:21:11.311Z,101219.47
2023-01-23T05:23:37.928Z,101225.56
2023-01-23T05:26:04.693Z,101226.34
2023-01-23T05:28:31.275Z,101220.88
2023-01-23T05:30:57.991Z,101227.00
2023-01-23T05:33:24.599Z,101226.94
2023-01-23T05:35:51.183Z,101227.00
2023-01-23T05:38:17.745Z,101225.22
2023-01-23T05:40:44.388Z,101221.53
2023-01-23T05:43:17.299Z,101229.53
2023-01-23T05:45:43.916Z,101229.59
2023-01-23T05:48:10.574Z,101245.66
2023-01-23T05:50:37.154Z,101243.91
2023-01-23T05:53:04.389Z,101243.63
2023-01-23T05:55:31.084Z,101254.88
2023-01-23T05:57:57.717Z,101258.31
2023-01-23T06:00:24.411Z,101257.31
2023-01-23T06:02:51.046Z,101254.50
2023-01-23T06:05:17.798Z,101265.94
2023-01-23T06:07:44.446Z,101265.88
2023-01-23T06:10:11.264Z,101259.66
2023-01-23T06:12:37.850Z,101273.88
2023-01-23T06:15:05.103Z,101271.03
2023-01-23T06:17:31.687Z,101270.03
2023-01-23T06:19:58.765Z,101275.28
2023-01-23T06:22:25.383Z,101281.50
2023-01-23T06:24:52.742Z,101287.69
2023-01-23T06:27:19.554Z,101282.34
2023-01-23T06:29:46.212Z,101292.16
2023-01-23T06:32:12.889Z,101285.81
2023-01-23T06:34:39.707Z,101287.44
2023-01-23T06:37:06.350Z,101292.72
2023-01-23T06:39:34.283Z,101290.94
2023-01-23T06:42:01.028Z,101297.91
2023-01-23T06:44:27.922Z,101293.44
2023-01-23T06:46:54.462Z,101306.56
2023-01-23T06:49:21.249Z,101309.13
2023-01-23T06:51:47.820Z,101319.72
2023-01-23T06:54:14.471Z,101318.78
2023-01-23T06:56:41.058Z,101314.25
2023-01-23T06:59:07.758Z,101306.97
2023-01-23T07:01:34.364Z,101311.28
2023-01-23T07:04:01.063Z,101308.44
2023-01-23T07:06:27.614Z,101308.25
2023-01-23T07:08:54.205Z,101324.00
2023-01-23T07:11:20.883Z,101336.28
2023-01-23T07:13:47.462Z,101342.31
2023-01-23T07:16:14.102Z,101342.06
2023-01-23T07:18:40.749Z,101340.03
2023-01-23T07:21:07.580Z,101344.13
2023-01-23T07:23:34.625Z,101342.97
2023-01-23T07:26:03.734Z,101338.16
2023-01-23T07:28:30.870Z,101354.69
2023-01-23T07:30:59.089Z,101343.69
2023-01-23T07:33:25.956Z,101344.22
2023-01-23T07:35:52.600Z,101346.56
2023-01-23T07:38:19.702Z,101344.38
2023-01-23T07:40:46.313Z,101339.56
2023-01-23T07:43:13.015Z,101334.69
2023-01-23T07:45:39.609Z,101338.69
2023-01-23T07:48:06.214Z,101341.88
2023-01-23T07:50:32.853Z,101344.16
2023-01-23T07:52:59.434Z,101341.84
2023-01-23T07:55:25.981Z,101347.72
2023-01-23T07:57:52.559Z,101351.66
2023-01-23T08:00:20.043Z,101359.16
2023-01-23T08:02:47.778Z,101350.66
2023-01-23T08:05:14.415Z,101349.00
2023-01-23T08:07:41.030Z,101339.44
2023-01-23T08:10:08.994Z,101347.97
2023-01-23T08:12:35.536Z,101343.91
2023-01-23T08:15:02.288Z,101351.31
2023-01-23T08:17:28.876Z,101348.28
2023-01-23T08:19:55.519Z,101345.94
2023-01-23T08:22:22.387Z,101347.06
2023-01-23T08:24:49.098Z,101355.47
2023-01-23T08:27:15.828Z,101354.75
2023-01-23T08:29:42.568Z,101355.72
2023-01-23T08:32:09.325Z,101356.81
2023-01-23T08:34:35.931Z,101350.22
2023-01-23T08:37:02.466Z,101359.50
2023-01-23T08:39:29.139Z,101364.31
2023-01-23T08:41:55.695Z,101363.25
2023-01-23T08:44:23.369Z,101356.25
2023-01-23T08:46:49.979Z,101365.94
2023-01-23T08:49:19.578Z,101364.00
2023-01-23T08:51:46.722Z,101364.81
2023-01-23T08:54:13.390Z,101367.47
2023-01-23T08:56:41.258Z,101373.69
2023-01-23T08:59:07.918Z,101365.72
2023-01-23T09:01:34.636Z,101370.16
2023-01-23T09:04:01.224Z,101374.34
2023-01-23T09:06:27.839Z,101370.44
2023-01-23T09:08:54.512Z,101371.03
2023-01-23T09:11:22.793Z,101371.69
2023-01-23T09:13:51.210Z,101373.88
2023-01-23T09:16:19.615Z,101374.19
2023-01-23T09:18:46.340Z,101378.56
2023-01-23T09:21:17.468Z,101369.53
2023-01-23T09:23:44.248Z,101369.78
2023-01-23T09:26:12.917Z,101362.22
2023-01-23T09:28:42.155Z,101358.72
2023-01-23T09:31:12.497Z,101361.97
2023-01-23T09:33:41.001Z,101357.81
2023-01-23T09:36:08.364Z,101359.75
2023-01-23T09:38:35.448Z,101350.41
2023-01-23T09:41:16.337Z,101350.53
2023-01-23T09:43:45.946Z,101353.88
2023-01-23T09:46:24.773Z,101355.63
2023-01-23T09:48:59.319Z,101354.53
2023-01-23T09:51:29.098Z,101360.19
2023-01-23T09:54:04.681Z,101346.66
2023-01-23T09:56:36.363Z,101353.69
2023-01-23T09:59:17.000Z,101348.56
2023-01-23T10:01:43.926Z,101348.47
2023-01-23T10:04:13.283Z,101350.94
2023-01-23T10:06:57.313Z,101346.97
2023-01-23T10:09:52.698Z,101345.19
2023-01-23T10:13:08.018Z,101349.53
2023-01-23T10:16:00.640Z,101343.03
2023-01-23T10:18:58.000Z,101352.41
2023-01-23T10:21:34.514Z,101347.16
2023-01-23T10:24:22.938Z,101349.25
2023-01-23T10:26:50.611Z,101346.53
2023-01-23T10:29:38.960Z,101355.13
2023-01-23T10:32:25.743Z,101343.59
2023-01-23T10:34:56.070Z,101349.91
2023-01-23T10:38:01.779Z,101348.06
2023-01-23T10:40:47.728Z,101347.75
2023-01-23T10:43:23.407Z,101351.03
2023-01-23T10:45:50.388Z,101335.03
2023-01-23T10:48:41.509Z,101345.53
2023-01-23T10:51:44.829Z,101336.00
2023-01-23T10:54:16.940Z,101327.59
2023-01-23T10:56:52.410Z,101323.03
2023-01-23T10:59:20.895Z,101317.91
2023-01-23T11:01:58.214Z,101326.50
2023-01-23T11:04:27.734Z,101315.63
2023-01-23T11:07:08.441Z,101324.22
2023-01-23T11:09:50.330Z,101316.94
2023-01-23T11:12:21.707Z,101307.72
2023-01-23T11:14:48.443Z,101309.78
2023-01-23T11:17:32.555Z,101315.56
2023-01-23T11:19:59.870Z,101313.16
2023-01-23T11:22:32.872Z,101320.09
2023-01-23T11:24:59.993Z,101310.19
2023-01-23T11:27:31.219Z,101304.91
2023-01-23T11:30:46.064Z,101296.25
2023-01-23T11:33:28.304Z,101296.59
2023-01-23T11:36:13.250Z,101294.97
2023-01-23T11:38:51.991Z,101291.66
2023-01-23T11:41:25.015Z,101290.31
2023-01-23T11:43:52.906Z,101287.91
2023-01-23T11:46:35.072Z,101285.69
2023-01-23T11:49:19.867Z,101285.00
2023-01-23T11:51:49.441Z,101282.28
2023-01-23T11:54:36.700Z,101285.38
2023-01-23T11:57:26.023Z,101283.97
2023-01-23T11:59:55.163Z,101277.84
2023-01-23T12:02:41.240Z,101290.94
2023-01-23T12:05:27.576Z,101291.19
2023-01-23T12:08:02.806Z,101288.38
2023-01-23T12:10:40.018Z,101288.97
2023-01-23T12:13:42.129Z,101280.66
2023-01-23T12:16:16.503Z,101288.06
2023-01-23T12:18:48.645Z,101278.75
2023-01-23T12:21:20.827Z,101286.53
2023-01-23T12:23:50.086Z,101282.28
2023-01-23T12:26:19.806Z,101289.28
2023-01-23T12:29:15.203Z,101291.59
2023-01-23T12:32:14.237Z,101289.91
2023-01-23T12:35:06.599Z,101296.69
2023-01-23T12:38:03.962Z,101279.94
2023-01-23T12:40:48.500Z,101277.03
2023-01-23T12:43:35.068Z,101277.22
2023-01-23T12:46:08.475Z,101277.78
2023-01-23T12:49:13.967Z,101279.97
2023-01-23T12:51:45.995Z,101279.38
2023-01-23T12:54:32.859Z,101277.97
2023-01-23T12:57:00.648Z,101286.56
2023-01-23T12:59:37.254Z,101279.47
2023-01-23T13:02:14.210Z,101291.19
2023-01-23T13:05:04.037Z,101286.06
2023-01-23T13:07:56.935Z,101288.47
2023-01-23T13:10:52.934Z,101291.41
2023-01-23T13:13:20.689Z,101288.69
2023-01-23T13:16:09.247Z,101279.53
2023-01-23T13:18:56.973Z,101295.25
2023-01-23T13:21:42.383Z,101298.81
2023-01-23T13:24:40.652Z,101301.41
2023-01-23T13:27:47.890Z,101294.09
2023-01-23T13:30:26.669Z,101304.00
2023-01-23T13:32:57.807Z,101308.59
2023-01-23T13:35:39.596Z,101309.22
2023-01-23T13:38:21.615Z,101309.41
2023-01-23T13:41:11.775Z,101320.97
2023-01-23T13:43:52.409Z,101320.13
2023-01-23T14:24:43.920Z,101335.78
2023-01-23T14:27:44.497Z,101338.09
2023-01-23T14:30:23.946Z,101335.78
2023-01-23T14:32:50.600Z,101339.47
2023-01-23T14:35:31.086Z,101342.06
2023-01-23T14:38:05.137Z,101347.38
2023-01-23T14:40:43.505Z,101336.53
2023-01-23T14:43:24.006Z,101346.59
2023-01-23T14:45:59.773Z,101338.78
2023-01-23T14:48:27.697Z,101340.38
2023-01-23T14:51:21.814Z,101340.97
2023-01-23T14:54:23.089Z,101351.44
2023-01-23T14:56:51.171Z,101342.09
2023-01-23T14:59:29.913Z,101347.28
2023-01-23T15:01:59.933Z,101350.94
2023-01-23T15:04:29.170Z,101355.19
2023-01-23T15:07:01.071Z,101352.50
2023-01-23T15:09:31.500Z,101350.22
2023-01-23T15:12:16.167Z,101368.19
2023-01-23T15:14:43.204Z,101367.84
2023-01-23T15:17:20.951Z,101365.09
2023-01-23T15:19:55.397Z,101365.59
2023-01-23T15:22:25.945Z,101371.19
2023-01-23T15:24:52.843Z,101368.25
2023-01-23T15:27:33.254Z,101372.41
2023-01-23T15:30:48.632Z,101376.69
2023-01-23T15:33:31.047Z,101370.16
2023-01-23T15:36:06.938Z,101374.53
2023-01-23T15:38:34.183Z,101374.75
2023-01-23T15:41:01.037Z,101384.41
2023-01-23T15:43:27.627Z,101394.56
2023-01-23T15:45:55.753Z,101386.94
2023-01-23T15:48:24.835Z,101389.25
2023-01-23T15:50:51.487Z,101386.78
2023-01-23T15:53:18.557Z,101401.69
2023-01-23T15:55:45.558Z,101402.66
2023-01-23T15:58:15.002Z,101400.41
2023-01-23T16:00:41.888Z,101400.63
2023-01-23T16:03:08.684Z,101411.13
2023-01-23T16:05:37.312Z,101403.59
2023-01-23T16:08:06.380Z,101393.19
2023-01-23T16:10:38.027Z,101392.66
2023-01-23T16:13:05.284Z,101397.59
2023-01-23T16:15:33.183Z,101401.44
2023-01-23T16:18:00.864Z,101399.19
2023-01-23T16:20:31.372Z,101396.22
2023-01-23T16:23:01.915Z,101400.09
2023-01-23T16:25:44.604Z,101403.13
2023-01-23T16:28:14.089Z,101406.16
2023-01-23T16:30:40.908Z,101409.03
2023-01-23T16:33:07.743Z,101406.78
2023-01-23T16:35:34.561Z,101418.81
2023-01-23T16:38:01.270Z,101426.25
2023-01-23T16:40:30.774Z,101418.19
2023-01-23T16:42:58.156Z,101416.47
2023-01-23T16:45:27.444Z,101419.38
2023-01-23T16:47:54.390Z,101430.34
2023-01-23T16:50:32.015Z,101430.44
2023-01-23T16:53:05.502Z,101434.31
2023-01-23T16:55:39.099Z,101443.47
2023-01-23T16:58:07.803Z,101443.66
2023-01-23T17:00:35.629Z,101452.94
2023-01-23T17:03:07.915Z,101446.88
2023-01-23T17:05:34.566Z,101441.81
2023-01-23T17:08:01.310Z,101447.44
2023-01-23T17:10:41.246Z,101450.22
2023-01-23T17:13:14.005Z,101456.97
2023-01-23T17:15:41.053Z,101452.13
2023-01-23T17:18:32.620Z,101452.63
2023-01-23T17:20:59.437Z,101452.81
2023-01-23T17:23:26.312Z,101454.84
2023-01-23T17:26:00.684Z,101449.59
2023-01-23T17:28:28.149Z,101457.84
2023-01-23T17:30:55.357Z,101454.41
2023-01-23T17:33:25.003Z,101455.25
2023-01-23T17:35:52.728Z,101449.69
2023-01-23T17:38:22.935Z,101450.75
2023-01-23T17:40:50.120Z,101458.16
2023-01-23T17:43:19.213Z,101455.09
2023-01-23T17:45:48.542Z,101464.53
2023-01-23T17:48:17.723Z,101460.22
2023-01-23T17:50:46.465Z,101461.38
2023-01-23T17:53:15.890Z,101466.97
2023-01-23T17:55:46.591Z,101462.66
2023-01-23T17:58:14.235Z,101462.97
2023-01-23T18:00:42.804Z,101463.81
2023-01-23T18:03:14.138Z,101463.06
2023-01-23T18:05:40.901Z,101468.13
2023-01-23T18:08:10.251Z,101462.66
2023-01-23T18:10:37.592Z,101469.84
2023-01-23T18:13:37.006Z,101468.41
2023-01-23T18:16:22.699Z,101463.13
2023-01-23T18:18:57.554Z,101460.53
2023-01-23T18:21:24.363Z,101462.56
2023-01-23T18:23:51.256Z,101461.91
2023-01-23T18:26:38.434Z,101463.84
2023-01-23T18:29:23.133Z,101461.91
2023-01-23T18:31:49.742Z,101463.63
2023-01-23T18:34:47.251Z,101455.78
2023-01-23T18:37:36.281Z,101463.38
2023-01-23T18:40:21.279Z,101466.91
2023-01-23T18:42:57.599Z,101466.03
2023-01-23T18:45:27.517Z,101461.34
2023-01-23T18:47:54.940Z,101462.31
2023-01-23T18:50:27.003Z,101465.19
2023-01-23T18:53:30.390Z,101473.25
2023-01-23T18:56:23.106Z,101467.41
2023-01-23T18:59:06.247Z,101479.94
2023-01-23T19:02:03.557Z,101475.75
2023-01-23T19:04:49.781Z,101474.09
2023-01-23T19:07:18.872Z,101482.03
2023-01-23T19:09:47.300Z,101483.94
2023-01-23T19:12:52.168Z,101488.47
2023-01-23T19:15:28.954Z,101485.22
2023-01-23T19:18:40.804Z,101491.22
2023-01-23T19:21:25.057Z,101491.63
2023-01-23T19:24:02.874Z,101499.00
2023-01-23T19:26:33.109Z,101498.50
2023-01-23T19:29:15.521Z,101494.38
2023-01-23T19:32:03.062Z,101495.72
2023-01-23T19:34:30.543Z,101495.88
2023-01-23T19:36:57.125Z,101502.50
2023-01-23T19:39:23.739Z,101503.25
2023-01-23T19:41:50.711Z,101507.66
2023-01-23T19:44:19.687Z,101509.59
2023-01-23T19:46:46.691Z,101500.94
2023-01-23T19:49:13.899Z,101502.94
2023-01-23T19:51:43.329Z,101507.56
2023-01-23T19:54:14.449Z,101506.69
2023-01-23T19:56:42.279Z,101503.03
2023-01-23T19:59:09.134Z,101518.16
2023-01-23T20:01:40.108Z,101521.13
2023-01-23T20:04:11.928Z,101524.84
2023-01-23T20:06:40.523Z,101520.81
2023-01-23T20:09:08.605Z,101515.22
2023-01-23T20:11:36.184Z,101522.84
2023-01-23T20:14:03.633Z,101520.25
2023-01-23T20:16:30.415Z,101526.66
2023-01-23T20:18:57.134Z,101527.28
2023-01-23T20:21:25.187Z,101540.16
2023-01-23T20:23:52.282Z,101536.88
2023-01-23T20:26:21.113Z,101540.59
2023-01-23T20:28:49.736Z,101544.38
2023-01-23T20:31:17.269Z,101545.69
2023-01-23T20:33:44.035Z,101550.84
2023-01-23T20:36:11.932Z,101550.25
2023-01-23T20:38:39.687Z,101553.09
2023-01-23T20:41:08.515Z,101551.19
2023-01-23T20:43:35.339Z,101552.06
2023-01-23T20:46:06.908Z,101557.56
2023-01-23T20:48:40.176Z,101561.47
2023-01-23T20:51:09.654Z,101564.28
2023-01-23T20:53:39.647Z,101568.09
2023-01-23T20:56:09.525Z,101568.44
2023-01-23T20:58:56.797Z,101569.59
2023-01-23T21:01:26.361Z,101571.66
2023-01-23T21:03:53.011Z,101575.47
2023-01-23T21:06:20.060Z,101574.66
2023-01-23T21:08:47.221Z,101576.16
2023-01-23T21:11:19.335Z,101585.75
2023-01-23T21:13:51.220Z,101588.34
2023-01-23T21:16:18.416Z,101588.53
2023-01-23T21:18:46.888Z,101594.09
2023-01-23T21:21:16.029Z,101596.78
2023-01-23T21:23:43.498Z,101588.75
2023-01-23T21:26:10.129Z,101594.81
2023-01-23T21:28:36.864Z,101598.41
2023-01-23T21:31:30.606Z,101603.06
2023-01-23T21:33:59.334Z,101603.06
2023-01-23T21:36:25.960Z,101610.31
2023-01-23T21:38:53.742Z,101609.38
2023-01-23T21:41:21.564Z,101611.03
2023-01-23T21:43:48.360Z,101613.78
2023-01-23T21:46:15.528Z,101607.66
2023-01-23T21:48:42.170Z,101604.72
2023-01-23T21:51:14.377Z,101611.66
2023-01-23T21:53:43.128Z,101605.19
2023-01-23T21:56:10.844Z,101611.72
2023-01-23T21:58:37.714Z,101620.72
2023-01-23T22:01:25.603Z,101618.19
2023-01-23T22:03:52.706Z,101618.28
2023-01-23T22:06:19.757Z,101618.19
2023-01-23T22:08:46.388Z,101616.44
2023-01-23T22:11:13.027Z,101622.69
2023-01-23T22:13:39.920Z,101630.72
2023-01-23T22:16:07.011Z,101628.09
2023-01-23T22:18:34.174Z,101629.06
2023-01-23T22:21:03.205Z,101632.69
2023-01-23T22:23:30.148Z,101640.72
2023-01-23T22:25:59.331Z,101635.50
2023-01-23T22:28:26.404Z,101638.25
2023-01-23T22:30:53.083Z,101644.47
2023-01-23T22:33:20.378Z,101648.03
2023-01-23T22:35:48.265Z,101652.56
2023-01-23T22:38:16.160Z,101656.13
2023-01-23T22:40:43.152Z,101653.53
2023-01-23T22:43:10.303Z,101660.78
2023-01-23T22:45:36.979Z,101653.69
2023-01-23T22:48:03.622Z,101665.16
2023-01-23T22:50:30.240Z,101662.56
2023-01-23T22:52:56.768Z,101670.59
2023-01-23T22:55:23.737Z,101674.22
2023-01-23T22:57:52.928Z,101675.31
2023-01-23T23:00:20.244Z,101676.44
2023-01-23T23:02:47.062Z,101672.88
2023-01-23T23:05:13.952Z,101682.94
2023-01-23T23:07:40.689Z,101685.78
2023-01-23T23:10:09.285Z,101684.97
2023-01-23T23:12:35.874Z,101692.28
2023-01-23T23:15:03.081Z,101690.56
2023-01-23T23:17:30.482Z,101685.34
2023-01-23T23:19:57.042Z,101687.31
2023-01-23T23:22:23.702Z,101684.00
2023-01-23T23:24:50.244Z,101685.16
2023-01-23T23:27:16.907Z,101691.56
2023-01-23T23:29:43.433Z,101685.50
2023-01-23T23:32:10.300Z,101694.53
2023-01-23T23:34:37.426Z,101689.38
2023-01-23T23:37:04.626Z,101688.72
2023-01-23T23:39:31.194Z,101696.09
2023-01-23T23:41:58.675Z,101693.66
2023-01-23T23:44:25.370Z,101693.06
2023-01-23T23:46:51.961Z,101690.63
2023-01-23T23:49:18.558Z,101693.41
2023-01-23T23:51:45.135Z,101701.66
2023-01-23T23:54:11.908Z,101701.88
2023-01-23T23:56:38.454Z,101706.47
2023-01-23T23:59:05.097Z,101702.28
